Weather at Krugersdorp Airport

Public forecast

Using degrees Celsius for public forecast. Weather courtesy of forecast.io.

Closest aviation weather report (METAR) to Krugersdorp Airport

Closest report is Lanseria International Airport, 13.8 nm (25.5 km) NE. Retrieved 2022/08/09 17:00 UTC (29 minutes ago):

FALA 091700Z 02004KT 330V090 CAVOK 17/M01 Q1024 NOSIG

Closest aviation forecast (TAF) to Krugersdorp Airport

Closest forecast is Lanseria International Airport, 13.8 nm (25.5 km) NE. Retrieved 2022/08/09 12:00 UTC (5 hours ago):

TAF FALA 091000Z 0912/1012 08009KT CAVOK TX21/1012Z TN06/1005Z BECMG 0915/0917 VRB03KT BECMG 1008/1010 29009KT